Time;durP1;ratioP1;P1;durP2;ratioP2;P2;SDS_P1;SDS_P2;PMS_P1;PMS_P2;Temp;Humidity;BMP_temperature;BMP_pressure;BME280_temperature;BME280_humidity;BME280_pressure;Samples;Min_cycle;Max_cycle;Signal;HPM_P1;HPM_P2
2023/06/13 00:04:43;;;;;;;8.27;3.28;;;15.70;51.50;;;;;;10373454;28;20231;-86
2023/06/13 00:09:45;;;;;;;6.50;3.45;;;15.70;59.50;;;;;;10433560;28;20300;-87
2023/06/13 00:14:50;;;;;;;9.10;3.97;;;16.10;59.30;;;;;;10426102;28;20235;-87
2023/06/13 00:19:54;;;;;;;4.43;3.17;;;16.30;53.50;;;;;;10413768;28;20231;-87
2023/06/13 00:24:57;;;;;;;3.42;2.08;;;16.60;59.80;;;;;;10423493;28;20267;-87
2023/06/13 00:30:00;;;;;;;3.15;2.13;;;16.80;65.70;;;;;;10397044;28;20262;-87
2023/06/13 00:35:03;;;;;;;4.55;2.60;;;16.60;60.60;;;;;;10414318;28;20305;-87
2023/06/13 00:40:08;;;;;;;6.18;3.17;;;16.50;51.80;;;;;;10413446;28;20238;-87
2023/06/13 00:45:21;;;;;;;2.42;2.22;;;16.70;55.70;;;;;;10397788;28;20231;-87
2023/06/13 00:50:36;;;;;;;6.68;3.75;;;16.70;61.90;;;;;;10395489;28;20250;-87
2023/06/13 00:55:39;;;;;;;10.70;3.65;;;16.70;49.40;;;;;;10397707;28;20622;-87
2023/06/13 01:00:44;;;;;;;4.57;2.28;;;16.80;48.60;;;;;;10419551;28;20763;-87
2023/06/13 01:05:48;;;;;;;6.50;3.83;;;16.70;61.40;;;;;;10407679;28;20207;-87
2023/06/13 01:10:59;;;;;;;4.32;3.38;;;16.70;58.10;;;;;;10400653;28;20308;-87
2023/06/13 01:16:15;;;;;;;10.50;2.45;;;16.70;53.30;;;;;;10399325;28;20227;-87
2023/06/13 01:21:20;;;;;;;3.10;2.20;;;16.80;60.30;;;;;;10393299;28;20203;-87
2023/06/13 01:26:35;;;;;;;4.60;2.33;;;17.10;56.80;;;;;;10411343;28;20267;-87
2023/06/13 01:31:40;;;;;;;2.47;1.65;;;17.20;56.20;;;;;;10414716;28;20292;-87
2023/06/13 01:36:46;;;;;;;2.53;2.33;;;17.30;63.20;;;;;;10451295;28;20230;-87
2023/06/13 01:41:49;;;;;;;2.10;1.60;;;17.00;48.70;;;;;;10434260;28;20211;-87
2023/06/13 01:47:05;;;;;;;4.40;2.10;;;17.00;60.30;;;;;;10449892;28;20620;-87
2023/06/13 01:52:21;;;;;;;5.00;2.03;;;16.80;53.80;;;;;;10433366;28;20272;-87
2023/06/13 01:57:44;;;;;;;1.80;1.63;;;16.80;53.90;;;;;;10452401;28;20233;-87
2023/06/13 02:02:48;;;;;;;3.15;1.60;;;16.80;51.10;;;;;;10417402;28;20242;-87
2023/06/13 02:07:56;;;;;;;5.05;2.10;;;16.70;53.60;;;;;;10437420;28;20262;-88
2023/06/13 02:12:59;;;;;;;1.55;1.42;;;16.70;46.10;;;;;;10378447;28;20235;-87
2023/06/13 02:18:02;;;;;;;4.60;1.33;;;16.50;47.50;;;;;;10392401;28;20203;-87
2023/06/13 02:23:05;;;;;;;4.05;1.60;;;16.50;52.80;;;;;;10412740;28;20211;-88
2023/06/13 02:28:09;;;;;;;4.82;1.80;;;16.40;59.00;;;;;;10412199;28;20259;-87
2023/06/13 02:33:13;;;;;;;3.65;1.88;;;16.20;49.10;;;;;;10408171;28;20690;-87
2023/06/13 02:38:15;;;;;;;3.65;1.92;;;16.10;54.60;;;;;;10390156;28;20242;-87
2023/06/13 02:43:21;;;;;;;2.03;1.42;;;16.00;47.60;;;;;;10422232;28;20235;-87
2023/06/13 02:48:25;;;;;;;1.70;1.50;;;16.10;56.00;;;;;;10373264;28;20313;-88
2023/06/13 02:53:28;;;;;;;1.95;1.67;;;16.10;50.90;;;;;;10427233;28;20271;-87
2023/06/13 02:58:31;;;;;;;1.98;1.73;;;16.30;55.50;;;;;;10390312;28;20231;-87
2023/06/13 03:03:34;;;;;;;2.45;1.50;;;16.20;47.60;;;;;;10389212;28;20290;-87
2023/06/13 03:08:38;;;;;;;1.83;1.48;;;16.20;50.30;;;;;;10389503;28;20255;-88
2023/06/13 03:13:45;;;;;;;4.55;1.67;;;16.20;46.70;;;;;;10384523;28;20244;-87
2023/06/13 03:18:48;;;;;;;3.90;1.67;;;16.20;55.20;;;;;;10373388;28;20235;-87
2023/06/13 03:23:50;;;;;;;2.97;1.85;;;16.40;55.90;;;;;;10394086;28;20316;-87
2023/06/13 03:28:53;;;;;;;2.78;1.58;;;16.40;48.60;;;;;;10389519;28;20255;-87
2023/06/13 03:33:56;;;;;;;2.15;1.50;;;16.50;60.10;;;;;;10390084;28;20231;-87
2023/06/13 03:38:59;;;;;;;1.48;1.35;;;16.60;50.30;;;;;;10372979;28;20285;-87
2023/06/13 03:44:02;;;;;;;2.72;1.75;;;16.60;46.30;;;;;;10399091;28;20238;-87
2023/06/13 03:49:04;;;;;;;4.38;1.67;;;16.60;53.60;;;;;;10439154;28;20762;-88
2023/06/13 03:54:07;;;;;;;2.75;1.50;;;16.80;49.80;;;;;;10436244;28;20257;-87
2023/06/13 03:59:10;;;;;;;2.75;1.30;;;16.70;53.70;;;;;;10456921;28;20673;-87
2023/06/13 04:04:12;;;;;;;2.30;1.67;;;16.70;49.10;;;;;;10413645;28;20293;-87
2023/06/13 04:09:15;;;;;;;6.82;3.33;;;16.80;54.30;;;;;;10404192;28;20276;-87
2023/06/13 04:14:18;;;;;;;5.85;1.95;;;16.50;49.00;;;;;;10412773;28;20231;-87
2023/06/13 04:19:23;;;;;;;1.80;1.30;;;16.60;47.30;;;;;;10395616;28;20227;-87
2023/06/13 04:24:25;;;;;;;5.22;1.52;;;16.60;51.50;;;;;;10412740;28;21003;-87
2023/06/13 04:29:28;;;;;;;7.07;2.03;;;16.60;56.90;;;;;;10404348;28;20266;-86
2023/06/13 04:34:31;;;;;;;9.82;2.17;;;16.60;47.40;;;;;;10412910;28;20700;-86
2023/06/13 04:39:36;;;;;;;2.20;1.50;;;16.60;50.60;;;;;;10414157;28;20243;-86
2023/06/13 04:44:40;;;;;;;7.50;2.17;;;16.90;52.70;;;;;;10411645;28;20585;-86
2023/06/13 04:49:45;;;;;;;2.28;1.70;;;16.80;46.50;;;;;;10413426;28;20301;-87
2023/06/13 04:54:47;;;;;;;1.55;1.45;;;16.90;56.80;;;;;;10406409;28;20225;-87
2023/06/13 04:59:50;;;;;;;4.22;1.80;;;16.80;56.90;;;;;;10426631;28;20297;-86
2023/06/13 05:04:52;;;;;;;4.10;1.92;;;17.20;48.30;;;;;;10390902;28;20294;-86
2023/06/13 05:09:55;;;;;;;5.35;1.75;;;17.60;40.60;;;;;;10371875;28;20321;-86
2023/06/13 05:14:57;;;;;;;6.80;2.63;;;17.60;41.80;;;;;;10421781;28;20232;-85
2023/06/13 05:20:00;;;;;;;3.97;1.60;;;17.60;39.20;;;;;;10412054;28;20657;-85
2023/06/13 05:25:03;;;;;;;1.60;1.33;;;17.60;42.60;;;;;;10399912;28;20264;-85
2023/06/13 05:30:11;;;;;;;2.53;2.00;;;17.70;42.00;;;;;;10400309;28;20312;-85
2023/06/13 05:35:15;;;;;;;8.27;2.25;;;17.90;40.60;;;;;;10432612;28;20626;-85
2023/06/13 05:40:18;;;;;;;8.75;4.63;;;18.10;37.40;;;;;;10452190;28;20288;-85
2023/06/13 05:45:21;;;;;;;3.88;2.03;;;18.00;37.20;;;;;;10446097;28;20645;-85
2023/06/13 05:50:23;;;;;;;2.53;2.08;;;18.00;39.50;;;;;;10434116;28;20640;-84
2023/06/13 05:55:27;;;;;;;8.20;1.83;;;17.80;34.10;;;;;;10422748;28;20602;-89
2023/06/13 06:00:30;;;;;;;3.72;1.70;;;17.90;38.60;;;;;;10409195;28;20239;-88
2023/06/13 06:05:34;;;;;;;4.47;1.58;;;18.00;38.30;;;;;;10410103;28;20631;-90
2023/06/13 06:10:37;;;;;;;6.68;1.85;;;18.00;37.80;;;;;;10407608;28;20617;-85
2023/06/13 06:15:40;;;;;;;28.98;3.53;;;18.10;36.00;;;;;;10432129;28;20249;-84
2023/06/13 06:20:43;;;;;;;12.18;2.35;;;18.40;36.80;;;;;;10449938;28;20689;-84
2023/06/13 06:25:45;;;;;;;3.78;2.17;;;18.60;35.10;;;;;;10449205;28;20266;-85
2023/06/13 06:30:48;;;;;;;7.63;2.63;;;18.50;33.70;;;;;;10429954;28;20270;-85
2023/06/13 06:35:53;;;;;;;9.13;2.22;;;18.70;34.50;;;;;;10408087;28;20215;-86
2023/06/13 06:40:56;;;;;;;6.47;2.78;;;18.60;36.80;;;;;;10376110;28;20992;-86
2023/06/13 06:45:58;;;;;;;4.07;2.45;;;18.50;37.50;;;;;;10416010;28;20288;-86
2023/06/13 06:51:01;;;;;;;7.60;2.50;;;18.10;37.30;;;;;;10447955;28;20320;-86
2023/06/13 06:56:03;;;;;;;7.35;2.45;;;18.10;38.90;;;;;;10391994;28;20235;-86
2023/06/13 07:01:06;;;;;;;6.03;2.22;;;18.40;41.10;;;;;;10378683;28;20619;-86
2023/06/13 07:06:11;;;;;;;2.70;2.40;;;18.60;39.70;;;;;;10408417;28;20235;-86
2023/06/13 07:11:14;;;;;;;6.40;2.80;;;18.50;37.60;;;;;;10408687;28;20274;-86
2023/06/13 07:16:16;;;;;;;2.72;2.03;;;18.70;39.50;;;;;;10418902;28;20622;-85
2023/06/13 07:21:19;;;;;;;10.13;2.47;;;19.00;40.10;;;;;;10408945;28;20312;-85
2023/06/13 07:26:22;;;;;;;8.07;2.75;;;;;;;;;;10453760;28;20234;-86
2023/06/13 07:31:24;;;;;;;5.57;2.10;;;19.50;35.60;;;;;;10446711;28;20332;-85
2023/06/13 07:36:28;;;;;;;6.38;2.53;;;19.70;37.90;;;;;;10423724;28;20623;-85
2023/06/13 07:41:36;;;;;;;2.70;2.45;;;19.80;36.00;;;;;;10413263;28;20602;-86
2023/06/13 07:46:38;;;;;;;3.50;2.35;;;20.00;33.10;;;;;;10382260;28;20677;-86
2023/06/13 07:51:41;;;;;;;5.70;2.20;;;20.20;35.70;;;;;;10407677;28;20243;-86
2023/06/13 07:56:44;;;;;;;3.20;1.83;;;20.30;33.90;;;;;;10412370;28;20219;-86
2023/06/13 08:01:47;;;;;;;2.95;1.90;;;;;;;;;;10403703;28;20293;-86
2023/06/13 08:06:50;;;;;;;4.07;1.85;;;20.70;32.20;;;;;;10414263;28;20253;-86
2023/06/13 08:11:53;;;;;;;7.55;1.77;;;21.00;32.00;;;;;;10420725;28;20247;-86
2023/06/13 08:16:56;;;;;;;3.60;1.85;;;;;;;;;;10365361;28;20227;-86
2023/06/13 08:21:59;;;;;;;3.55;2.17;;;21.20;30.60;;;;;;10395667;28;20302;-86
2023/06/13 08:27:02;;;;;;;3.72;1.23;;;21.00;28.50;;;;;;10403979;28;20286;-86
2023/06/13 08:32:05;;;;;;;4.60;1.98;;;21.20;31.20;;;;;;10409009;28;20641;-85
2023/06/13 08:37:07;;;;;;;2.38;1.98;;;21.00;28.30;;;;;;10427359;28;20231;-86
2023/06/13 08:42:11;;;;;;;2.50;1.98;;;21.00;28.60;;;;;;10413676;28;20239;-85
2023/06/13 08:47:16;;;;;;;6.50;1.70;;;21.00;29.30;;;;;;10409387;28;20227;-86
2023/06/13 08:52:41;;;;;;;2.33;2.03;;;21.00;31.70;;;;;;10404750;28;20255;-85
2023/06/13 08:57:47;;;;;;;2.53;1.80;;;20.80;30.00;;;;;;10406630;28;20231;-85
2023/06/13 09:02:52;;;;;;;2.78;2.20;;;20.90;31.80;;;;;;10413715;28;20281;-85
2023/06/13 09:07:56;;;;;;;4.97;1.92;;;20.80;31.30;;;;;;10419876;28;20253;-85
2023/06/13 09:13:16;;;;;;;4.30;2.50;;;21.00;31.60;;;;;;10410298;28;20250;-83
2023/06/13 09:18:19;;;;;;;3.55;2.33;;;21.30;29.10;;;;;;10405561;28;20227;-85
2023/06/13 09:23:22;;;;;;;3.60;1.67;;;21.60;30.00;;;;;;10408663;28;20239;-85
2023/06/13 09:28:36;;;;;;;6.15;1.98;;;21.60;29.40;;;;;;10385500;28;20266;-84
2023/06/13 09:33:38;;;;;;;3.55;1.60;;;21.90;27.60;;;;;;10390663;28;20231;-84
2023/06/13 09:38:42;;;;;;;6.00;1.90;;;21.90;25.70;;;;;;10430830;28;20234;-84
2023/06/13 09:43:45;;;;;;;1.58;1.48;;;21.70;25.80;;;;;;10420886;28;20239;-84
2023/06/13 09:48:48;;;;;;;1.60;1.35;;;22.10;26.40;;;;;;10411863;28;20243;-84
2023/06/13 09:53:51;;;;;;;3.30;1.95;;;22.10;29.00;;;;;;10422550;28;20211;-84
2023/06/13 09:58:53;;;;;;;3.55;1.70;;;22.10;27.50;;;;;;10423932;28;20261;-85
2023/06/13 10:03:56;;;;;;;1.50;1.35;;;22.00;24.50;;;;;;10392724;28;20297;-86
2023/06/13 10:08:59;;;;;;;2.00;1.80;;;21.90;26.80;;;;;;10392127;28;20954;-85
2023/06/13 10:14:10;;;;;;;2.40;1.48;;;21.60;24.10;;;;;;10407799;28;20227;-86
2023/06/13 10:19:19;;;;;;;1.67;1.20;;;21.70;25.10;;;;;;10430637;28;20230;-85
2023/06/13 10:24:25;;;;;;;1.95;1.50;;;21.80;25.80;;;;;;10443464;28;20266;-86
2023/06/13 10:29:46;;;;;;;5.28;1.48;;;21.40;27.40;;;;;;10440471;28;20701;-86
2023/06/13 10:35:02;;;;;;;2.78;1.58;;;21.20;23.30;;;;;;10448914;28;20758;-84
2023/06/13 10:40:37;;;;;;;4.03;1.40;;;21.40;27.70;;;;;;10441953;28;20226;-84
2023/06/13 10:45:43;;;;;;;7.07;1.63;;;21.60;25.70;;;;;;10391361;28;20235;-84
2023/06/13 10:50:48;;;;;;;1.55;1.13;;;21.20;24.00;;;;;;10426731;28;20784;-84
2023/06/13 10:55:50;;;;;;;3.65;1.48;;;20.90;25.10;;;;;;10440502;28;20305;-84
2023/06/13 11:00:53;;;;;;;11.85;3.08;;;20.70;27.80;;;;;;10419721;28;20273;-84
2023/06/13 11:05:56;;;;;;;2.33;1.10;;;20.50;25.00;;;;;;10446201;28;20299;-84
2023/06/13 11:10:58;;;;;;;3.95;1.40;;;20.50;26.70;;;;;;10435723;28;20257;-84
2023/06/13 11:16:37;;;;;;;3.20;1.77;;;20.80;30.00;;;;;;10397075;28;20698;-84
2023/06/13 11:21:46;;;;;;;1.80;1.30;;;21.20;26.00;;;;;;10430602;28;20235;-84
2023/06/13 11:26:48;;;;;;;7.53;2.70;;;21.20;27.20;;;;;;10425428;28;20270;-84
2023/06/13 11:31:53;;;;;;;7.28;2.10;;;21.50;27.40;;;;;;10416917;28;20280;-84
2023/06/13 11:37:02;;;;;;;3.78;2.15;;;21.30;26.60;;;;;;10385044;28;20288;-84
2023/06/13 11:42:06;;;;;;;5.07;1.75;;;21.40;28.40;;;;;;10447237;28;20257;-84
2023/06/13 11:47:11;;;;;;;6.63;1.80;;;21.30;30.00;;;;;;10417361;28;20262;-84
2023/06/13 11:52:15;;;;;;;6.38;2.20;;;21.20;27.20;;;;;;10407072;28;20250;-84
2023/06/13 11:57:18;;;;;;;21.70;3.20;;;21.40;28.80;;;;;;10430414;28;20261;-84
2023/06/13 12:02:21;;;;;;;3.72;1.75;;;21.60;27.10;;;;;;10436193;28;20234;-84
2023/06/13 12:07:23;;;;;;;2.22;1.35;;;21.70;29.40;;;;;;10435367;28;20242;-85
2023/06/13 12:12:27;;;;;;;3.97;1.45;;;21.50;28.60;;;;;;10396418;28;20388;-84
2023/06/13 12:17:30;;;;;;;3.88;1.75;;;21.30;28.00;;;;;;10411820;28;20288;-84
2023/06/13 12:22:33;;;;;;;13.95;3.30;;;21.30;27.60;;;;;;10390858;28;20278;-84
2023/06/13 12:27:36;;;;;;;4.93;2.50;;;21.10;27.80;;;;;;10418150;28;20281;-84
2023/06/13 12:32:43;;;;;;;1.75;1.52;;;21.10;30.00;;;;;;10396687;28;20239;-85
2023/06/13 12:37:58;;;;;;;4.13;1.70;;;21.00;30.30;;;;;;10412065;28;20385;-85
2023/06/13 12:43:02;;;;;;;1.60;1.17;;;20.90;28.90;;;;;;10396138;28;20713;-85
2023/06/13 12:48:05;;;;;;;6.50;1.70;;;21.00;32.30;;;;;;10410312;28;20958;-85
2023/06/13 12:53:08;;;;;;;2.05;1.80;;;21.10;30.60;;;;;;10411218;28;20251;-86
2023/06/13 12:58:26;;;;;;;2.53;1.13;;;21.30;28.10;;;;;;10410866;28;20228;-85
2023/06/13 13:03:30;;;;;;;3.80;1.25;;;21.30;29.30;;;;;;10390928;28;20235;-85
2023/06/13 13:08:34;;;;;;;4.15;1.73;;;21.30;27.40;;;;;;10423029;28;20288;-85
2023/06/13 13:13:37;;;;;;;2.40;1.48;;;21.10;28.60;;;;;;10432480;28;20894;-84
2023/06/13 13:18:39;;;;;;;1.63;1.10;;;21.20;27.90;;;;;;10410981;28;20626;-85
2023/06/13 13:23:42;;;;;;;2.13;1.17;;;21.30;29.30;;;;;;10430113;28;20343;-84
2023/06/13 13:28:45;;;;;;;8.25;1.60;;;21.10;31.00;;;;;;10414793;28;20231;-85
2023/06/13 13:33:47;;;;;;;4.40;1.05;;;20.60;33.30;;;;;;10392023;28;20259;-84
2023/06/13 13:38:50;;;;;;;1.90;1.58;;;20.80;32.00;;;;;;10390759;28;20236;-84
2023/06/13 13:43:56;;;;;;;1.73;1.58;;;20.40;30.10;;;;;;10387424;28;20258;-84
2023/06/13 13:48:58;;;;;;;6.32;1.67;;;20.50;30.70;;;;;;10407203;28;20243;-85
2023/06/13 13:54:02;;;;;;;3.60;1.77;;;20.60;31.90;;;;;;10443270;28;20231;-85
2023/06/13 13:59:05;;;;;;;7.05;1.75;;;21.00;31.90;;;;;;10451908;28;20226;-84
2023/06/13 14:04:07;;;;;;;2.13;1.35;;;20.60;29.60;;;;;;10451075;28;20269;-85
2023/06/13 14:09:12;;;;;;;7.93;1.65;;;20.50;31.50;;;;;;10392923;28;20282;-84
2023/06/13 14:14:15;;;;;;;2.15;1.52;;;20.60;29.80;;;;;;10427428;28;20312;-85
2023/06/13 14:19:18;;;;;;;1.50;1.25;;;20.90;32.10;;;;;;10392576;28;20228;-85
2023/06/13 14:24:20;;;;;;;1.33;1.10;;;20.80;30.10;;;;;;10408282;28;20259;-88
2023/06/13 14:29:23;;;;;;;3.75;1.70;;;20.50;35.30;;;;;;10406893;28;20231;-91
2023/06/13 14:34:28;;;;;;;1.77;1.52;;;20.80;31.30;;;;;;10409244;28;20282;-92
2023/06/13 14:39:31;;;;;;;7.50;2.47;;;20.60;29.50;;;;;;10391886;28;20703;-93
2023/06/13 14:44:34;;;;;;;2.50;1.30;;;20.70;30.50;;;;;;10409494;28;20257;-91
2023/06/13 14:49:37;;;;;;;3.58;1.30;;;21.00;32.00;;;;;;10392899;28;20247;-91
2023/06/13 14:54:39;;;;;;;2.17;1.45;;;21.10;28.30;;;;;;10392165;28;20633;-91
2023/06/13 14:59:42;;;;;;;2.40;1.88;;;20.50;29.40;;;;;;10391284;28;20287;-91
2023/06/13 15:04:44;;;;;;;2.17;1.50;;;20.30;34.60;;;;;;10408332;28;20239;-91
2023/06/13 15:09:47;;;;;;;53.58;7.00;;;20.30;33.10;;;;;;10407384;28;20251;-91
2023/06/13 15:14:50;;;;;;;27.83;3.75;;;20.30;31.10;;;;;;10390273;28;20362;-92
2023/06/13 15:19:53;;;;;;;44.55;5.43;;;20.30;31.00;;;;;;10407938;28;20208;-92
2023/06/13 15:24:55;;;;;;;8.20;2.80;;;20.20;32.10;;;;;;10406498;28;20267;-91
2023/06/13 15:29:59;;;;;;;29.60;4.90;;;20.10;31.60;;;;;;10408334;28;20648;-89
2023/06/13 15:35:03;;;;;;;40.40;5.20;;;19.90;31.60;;;;;;10389699;28;20222;-91
2023/06/13 15:40:06;;;;;;;34.60;4.18;;;19.90;31.60;;;;;;10390464;28;20620;-90
2023/06/13 15:45:09;;;;;;;47.10;5.00;;;20.00;32.60;;;;;;10416781;28;20777;-91
2023/06/13 15:50:12;;;;;;;4.70;2.10;;;20.00;32.50;;;;;;10405607;28;20303;-91
2023/06/13 15:55:15;;;;;;;28.00;4.63;;;19.90;31.50;;;;;;10415904;28;20239;-92
2023/06/13 16:00:21;;;;;;;6.35;1.92;;;19.90;30.80;;;;;;10415851;28;20231;-91
2023/06/13 16:05:23;;;;;;;8.50;2.10;;;19.90;31.30;;;;;;10413844;28;20246;-92
2023/06/13 16:10:26;;;;;;;9.65;2.95;;;20.10;32.40;;;;;;10435855;28;20710;-84
2023/06/13 16:15:31;;;;;;;16.65;3.83;;;20.20;31.40;;;;;;10445650;28;20219;-84
2023/06/13 16:20:34;;;;;;;4.53;2.00;;;20.30;32.90;;;;;;10430693;28;20290;-84
2023/06/13 16:25:36;;;;;;;10.38;3.03;;;20.50;32.60;;;;;;10442493;28;20319;-84
2023/06/13 16:30:39;;;;;;;15.57;3.15;;;20.40;34.00;;;;;;10418706;28;20317;-84
2023/06/13 16:35:42;;;;;;;9.40;2.58;;;20.90;32.30;;;;;;10425052;28;20336;-84
2023/06/13 16:40:45;;;;;;;15.82;2.60;;;21.10;29.00;;;;;;10413548;28;20269;-84
2023/06/13 16:45:47;;;;;;;7.60;2.42;;;21.30;31.90;;;;;;10405904;28;20349;-84
2023/06/13 16:50:50;;;;;;;6.63;2.35;;;21.70;30.90;;;;;;10036523;28;9999587;-83
2023/06/13 16:55:52;;;;;;;8.15;2.67;;;21.70;27.30;;;;;;10409410;28;20227;-83
2023/06/13 17:00:55;;;;;;;8.30;2.47;;;21.50;30.70;;;;;;10450561;28;20254;-84
2023/06/13 17:06:00;;;;;;;12.27;3.03;;;21.10;28.00;;;;;;10383432;28;20255;-84
2023/06/13 17:11:03;;;;;;;5.82;2.63;;;19.90;31.00;;;;;;10363180;28;20259;-83
2023/06/13 17:16:05;;;;;;;2.80;2.38;;;19.30;34.00;;;;;;10410026;28;20275;-83
2023/06/13 17:21:08;;;;;;;3.35;1.65;;;18.80;35.60;;;;;;10393400;28;20624;-83
2023/06/13 17:26:11;;;;;;;4.22;2.78;;;18.60;35.50;;;;;;10408423;28;20329;-83
2023/06/13 17:31:13;;;;;;;4.15;2.28;;;18.30;37.20;;;;;;10382670;28;20311;-83
2023/06/13 17:36:18;;;;;;;3.35;2.30;;;18.00;39.00;;;;;;10367705;28;20232;-83
2023/06/13 17:41:22;;;;;;;7.05;2.60;;;17.70;40.90;;;;;;10366877;28;20290;-83
2023/06/13 17:46:26;;;;;;;8.68;2.17;;;17.70;45.50;;;;;;10402056;28;20234;-83
2023/06/13 17:51:28;;;;;;;6.63;2.35;;;18.00;55.90;;;;;;10408443;28;20255;-83
2023/06/13 17:56:31;;;;;;;1.88;1.38;;;18.30;55.50;;;;;;10410902;28;20238;-82
2023/06/13 18:01:34;;;;;;;4.25;2.17;;;18.40;55.10;;;;;;10408059;28;20707;-83
2023/06/13 18:06:37;;;;;;;8.60;1.73;;;18.50;51.60;;;;;;10391688;28;20228;-82
2023/06/13 18:11:39;;;;;;;2.53;2.33;;;18.60;53.90;;;;;;10421272;28;20337;-83
2023/06/13 18:16:42;;;;;;;4.18;1.70;;;18.50;52.50;;;;;;10384104;28;20227;-83
2023/06/13 18:21:44;;;;;;;3.95;1.80;;;18.60;54.50;;;;;;10408929;28;20338;-83
2023/06/13 18:26:47;;;;;;;1.70;1.40;;;18.80;49.20;;;;;;10408119;28;20333;-84
2023/06/13 18:31:51;;;;;;;6.43;1.98;;;18.70;53.30;;;;;;10411515;28;20255;-84
2023/06/13 18:36:54;;;;;;;2.15;1.60;;;18.50;53.70;;;;;;10409097;28;20285;-83
2023/06/13 18:41:56;;;;;;;4.97;2.20;;;18.50;53.70;;;;;;10409911;28;20277;-84
2023/06/13 18:46:59;;;;;;;4.10;2.17;;;18.60;53.10;;;;;;10424141;28;20238;-84
2023/06/13 18:52:02;;;;;;;2.70;1.70;;;18.50;54.60;;;;;;10449257;28;20262;-85
2023/06/13 18:57:05;;;;;;;12.45;2.10;;;18.50;57.70;;;;;;10407011;28;20641;-84
2023/06/13 19:02:09;;;;;;;2.47;2.28;;;18.40;56.30;;;;;;10416747;28;20679;-84
2023/06/13 19:07:11;;;;;;;2.60;2.40;;;18.30;54.40;;;;;;10405624;28;20598;-84
2023/06/13 19:12:19;;;;;;;3.88;1.75;;;18.30;53.80;;;;;;10389379;28;20270;-85
2023/06/13 19:17:23;;;;;;;2.67;2.05;;;18.10;58.30;;;;;;10397995;28;20204;-85
2023/06/13 19:22:26;;;;;;;3.13;2.47;;;18.00;62.70;;;;;;10407706;28;20256;-85
2023/06/13 19:27:28;;;;;;;4.45;3.05;;;17.90;62.60;;;;;;10428592;28;20313;-85
2023/06/13 19:32:32;;;;;;;4.40;2.50;;;17.80;61.90;;;;;;10419721;28;20641;-84
2023/06/13 19:37:35;;;;;;;3.35;2.97;;;17.50;61.80;;;;;;10398161;28;21000;-85
2023/06/13 19:42:38;;;;;;;3.05;2.80;;;17.20;62.90;;;;;;10383683;28;20565;-85
2023/06/13 19:47:41;;;;;;;5.35;3.25;;;16.90;65.40;;;;;;10443680;28;20222;-84
2023/06/13 19:52:44;;;;;;;4.72;3.17;;;16.30;67.40;;;;;;10416231;28;20255;-84
2023/06/13 19:57:46;;;;;;;4.97;3.50;;;15.90;74.30;;;;;;10395759;28;20254;-83
2023/06/13 20:02:49;;;;;;;3.97;3.22;;;15.60;77.20;;;;;;10401049;28;20235;-83
2023/06/13 20:07:52;;;;;;;2.95;2.65;;;15.30;82.90;;;;;;10406728;28;20239;-84
2023/06/13 20:12:54;;;;;;;6.97;4.38;;;15.20;89.80;;;;;;10406841;28;20798;-82
2023/06/13 20:17:58;;;;;;;4.75;3.58;;;14.80;90.90;;;;;;10403165;28;20269;-83
2023/06/13 20:23:03;;;;;;;4.30;3.55;;;14.70;92.70;;;;;;10397830;28;20247;-82
2023/06/13 20:28:05;;;;;;;7.13;3.78;;;14.50;95.60;;;;;;10398569;28;20258;-84
2023/06/13 20:33:08;;;;;;;4.85;3.00;;;14.60;96.60;;;;;;10442705;28;20257;-83
2023/06/13 20:38:11;;;;;;;4.07;3.70;;;14.50;96.90;;;;;;10434631;28;20643;-83
2023/06/13 20:43:13;;;;;;;5.75;5.00;;;14.70;97.10;;;;;;10418180;28;20265;-83
2023/06/13 20:48:16;;;;;;;4.97;3.88;;;14.20;97.70;;;;;;10439579;28;20297;-83
2023/06/13 20:53:19;;;;;;;5.95;5.07;;;14.00;99.10;;;;;;10413499;28;20324;-83
2023/06/13 20:58:22;;;;;;;5.57;5.05;;;14.10;99.70;;;;;;10417232;28;20293;-83
2023/06/13 21:03:25;;;;;;;6.00;4.63;;;14.00;99.90;;;;;;10431906;28;20242;-83
2023/06/13 21:08:31;;;;;;;4.50;4.10;;;14.00;99.90;;;;;;10417756;28;20239;-83
2023/06/13 21:13:33;;;;;;;2.50;2.25;;;13.90;99.90;;;;;;10419977;28;20737;-83
2023/06/13 21:18:36;;;;;;;4.15;3.85;;;14.20;99.90;;;;;;10421500;28;20301;-83
2023/06/13 21:23:39;;;;;;;3.88;3.58;;;14.30;99.90;;;;;;10421362;28;20242;-83
2023/06/13 21:28:42;;;;;;;5.68;4.70;;;14.30;99.90;;;;;;10413592;28;20227;-82
2023/06/13 21:33:44;;;;;;;5.00;4.60;;;14.40;99.90;;;;;;10370981;28;20267;-82
2023/06/13 21:38:47;;;;;;;5.10;4.07;;;14.40;99.90;;;;;;10369938;28;20681;-82
2023/06/13 21:43:50;;;;;;;5.30;4.68;;;14.50;99.90;;;;;;10369271;28;20231;-82
2023/06/13 21:48:54;;;;;;;5.20;4.70;;;14.50;99.90;;;;;;10423605;28;20270;-83
2023/06/13 21:53:57;;;;;;;5.38;3.78;;;14.60;99.90;;;;;;10452329;28;20258;-83
2023/06/13 21:58:59;;;;;;;6.28;5.68;;;14.90;99.90;;;;;;10440440;28;20254;-83
2023/06/13 22:04:03;;;;;;;6.30;5.20;;;15.00;99.90;;;;;;10422909;28;20606;-83
2023/06/13 22:09:06;;;;;;;5.60;4.85;;;15.00;99.90;;;;;;10449331;28;20246;-83
2023/06/13 22:14:11;;;;;;;8.70;5.30;;;15.10;99.90;;;;;;10451411;28;20254;-83
2023/06/13 22:19:14;;;;;;;5.75;5.25;;;15.10;99.90;;;;;;10435455;28;20232;-83
2023/06/13 22:24:17;;;;;;;4.65;4.25;;;15.10;99.90;;;;;;10409367;28;20275;-82
2023/06/13 22:29:20;;;;;;;6.07;5.43;;;15.20;99.90;;;;;;10415270;28;20321;-83
2023/06/13 22:34:23;;;;;;;5.38;4.85;;;15.10;99.90;;;;;;10450504;28;20262;-83
2023/06/13 22:39:25;;;;;;;3.80;3.50;;;15.30;99.90;;;;;;10428532;28;20234;-83
2023/06/13 22:44:28;;;;;;;4.38;4.07;;;15.60;99.90;;;;;;10408436;28;20238;-83
2023/06/13 22:49:33;;;;;;;5.60;5.10;;;15.90;99.90;;;;;;10409618;28;20239;-83
2023/06/13 22:54:35;;;;;;;4.03;3.65;;;15.90;99.50;;;;;;10391205;28;20255;-83
2023/06/13 22:59:38;;;;;;;5.82;5.22;;;16.00;99.90;;;;;;10426777;28;20296;-83
2023/06/13 23:04:41;;;;;;;6.20;5.60;;;16.00;99.90;;;;;;10401059;28;20283;-83
2023/06/13 23:09:44;;;;;;;6.90;6.30;;;16.00;99.90;;;;;;10391290;28;20243;-84
2023/06/13 23:14:46;;;;;;;5.65;5.15;;;16.00;99.90;;;;;;10421531;28;20254;-84
2023/06/13 23:19:53;;;;;;;4.63;4.22;;;16.00;99.90;;;;;;10421111;28;20604;-84
2023/06/13 23:24:57;;;;;;;6.72;6.07;;;16.00;99.90;;;;;;10428242;28;20263;-83
2023/06/13 23:30:02;;;;;;;4.90;3.15;;;15.90;99.90;;;;;;10372485;28;20236;-83
2023/06/13 23:35:06;;;;;;;6.68;5.50;;;16.00;99.90;;;;;;10366562;28;20694;-83
2023/06/13 23:40:13;;;;;;;4.97;4.57;;;16.10;99.90;;;;;;10366056;28;20693;-84
2023/06/13 23:45:16;;;;;;;6.22;5.63;;;16.20;99.90;;;;;;10381083;28;20667;-84
2023/06/13 23:50:19;;;;;;;7.20;6.50;;;16.30;99.90;;;;;;10433518;28;20230;-84
2023/06/13 23:55:23;;;;;;;3.63;3.33;;;16.20;99.90;;;;;;10448392;28;20307;-84
